sensor_id;sensor_type;location;lat;lon;timestamp;pressure;altitude;pressure_sealevel;temperature;humidity
54308;BME280;40208;39.778;2.710;2023-03-23T00:01:36;101493.94;;;12.45;100.00
54308;BME280;40208;39.778;2.710;2023-03-23T00:04:22;101483.91;;;12.51;100.00
54308;BME280;40208;39.778;2.710;2023-03-23T00:07:10;101445.53;;;12.35;100.00
54308;BME280;40208;39.778;2.710;2023-03-23T00:09:57;101488.19;;;12.56;100.00
54308;BME280;40208;39.778;2.710;2023-03-23T00:12:41;101476.25;;;12.64;100.00
54308;BME280;40208;39.778;2.710;2023-03-23T00:15:26;101436.84;;;12.32;100.00
54308;BME280;40208;39.778;2.710;2023-03-23T00:18:11;101468.63;;;12.55;100.00
54308;BME280;40208;39.778;2.710;2023-03-23T00:21:06;101433.28;;;12.31;100.00
54308;BME280;40208;39.778;2.710;2023-03-23T00:23:52;101469.16;;;12.43;100.00
54308;BME280;40208;39.778;2.710;2023-03-23T00:26:39;101454.38;;;12.36;100.00
54308;BME280;40208;39.778;2.710;2023-03-23T00:29:24;101466.31;;;12.47;100.00
54308;BME280;40208;39.778;2.710;2023-03-23T00:32:13;101457.31;;;12.50;100.00
54308;BME280;40208;39.778;2.710;2023-03-23T00:34:58;101414.19;;;12.42;100.00
54308;BME280;40208;39.778;2.710;2023-03-23T00:37:43;101443.03;;;12.93;100.00
54308;BME280;40208;39.778;2.710;2023-03-23T00:40:28;101432.84;;;12.83;100.00
54308;BME280;40208;39.778;2.710;2023-03-23T00:43:15;101415.88;;;13.04;100.00
54308;BME280;40208;39.778;2.710;2023-03-23T00:46:00;101389.97;;;13.08;100.00
54308;BME280;40208;39.778;2.710;2023-03-23T00:48:46;101373.63;;;12.97;100.00
54308;BME280;40208;39.778;2.710;2023-03-23T00:51:31;101392.88;;;13.22;100.00
54308;BME280;40208;39.778;2.710;2023-03-23T00:54:16;101416.94;;;13.21;100.00
54308;BME280;40208;39.778;2.710;2023-03-23T00:57:01;101417.13;;;13.16;100.00
54308;BME280;40208;39.778;2.710;2023-03-23T00:59:47;101395.38;;;13.06;100.00
54308;BME280;40208;39.778;2.710;2023-03-23T01:02:32;101368.00;;;13.03;100.00
54308;BME280;40208;39.778;2.710;2023-03-23T01:05:18;101405.88;;;13.09;100.00
54308;BME280;40208;39.778;2.710;2023-03-23T01:08:04;101401.00;;;13.19;100.00
54308;BME280;40208;39.778;2.710;2023-03-23T01:10:50;101403.31;;;13.27;100.00
54308;BME280;40208;39.778;2.710;2023-03-23T01:13:35;101401.72;;;13.23;100.00
54308;BME280;40208;39.778;2.710;2023-03-23T01:16:21;101395.22;;;13.30;100.00
54308;BME280;40208;39.778;2.710;2023-03-23T01:19:06;101385.94;;;13.18;100.00
54308;BME280;40208;39.778;2.710;2023-03-23T01:21:52;101383.13;;;13.02;100.00
54308;BME280;40208;39.778;2.710;2023-03-23T01:24:37;101402.31;;;13.10;100.00
54308;BME280;40208;39.778;2.710;2023-03-23T01:27:22;101411.84;;;13.35;100.00
54308;BME280;40208;39.778;2.710;2023-03-23T01:30:10;101391.00;;;13.05;100.00
54308;BME280;40208;39.778;2.710;2023-03-23T01:32:56;101383.69;;;12.90;100.00
54308;BME280;40208;39.778;2.710;2023-03-23T01:35:41;101421.31;;;13.03;100.00
54308;BME280;40208;39.778;2.710;2023-03-23T01:38:26;101424.47;;;13.11;100.00
54308;BME280;40208;39.778;2.710;2023-03-23T01:41:12;101367.41;;;12.77;100.00
54308;BME280;40208;39.778;2.710;2023-03-23T01:44:03;101409.19;;;12.96;100.00
54308;BME280;40208;39.778;2.710;2023-03-23T01:46:48;101402.19;;;12.93;100.00
54308;BME280;40208;39.778;2.710;2023-03-23T01:49:36;101403.38;;;12.86;100.00
54308;BME280;40208;39.778;2.710;2023-03-23T01:52:25;101363.44;;;12.46;100.00
54308;BME280;40208;39.778;2.710;2023-03-23T01:55:11;101410.75;;;12.60;100.00
54308;BME280;40208;39.778;2.710;2023-03-23T01:57:57;101395.28;;;12.68;100.00
54308;BME280;40208;39.778;2.710;2023-03-23T02:00:42;101388.75;;;12.55;100.00
54308;BME280;40208;39.778;2.710;2023-03-23T02:03:28;101394.44;;;12.47;100.00
54308;BME280;40208;39.778;2.710;2023-03-23T02:06:15;101393.44;;;12.29;100.00
54308;BME280;40208;39.778;2.710;2023-03-23T02:09:00;101354.25;;;12.13;100.00
54308;BME280;40208;39.778;2.710;2023-03-23T02:11:46;101385.19;;;12.15;100.00
54308;BME280;40208;39.778;2.710;2023-03-23T02:14:32;101385.03;;;12.18;100.00
54308;BME280;40208;39.778;2.710;2023-03-23T02:17:19;101369.53;;;12.28;100.00
54308;BME280;40208;39.778;2.710;2023-03-23T02:29:22;101344.56;;;12.10;100.00
54308;BME280;40208;39.778;2.710;2023-03-23T02:32:45;101335.88;;;12.06;100.00
54308;BME280;40208;39.778;2.710;2023-03-23T02:35:43;101315.59;;;11.82;100.00
54308;BME280;40208;39.778;2.710;2023-03-23T02:41:41;101296.41;;;11.96;100.00
54308;BME280;40208;39.778;2.710;2023-03-23T02:44:29;101317.16;;;11.87;100.00
54308;BME280;40208;39.778;2.710;2023-03-23T02:47:21;101258.56;;;11.67;100.00
54308;BME280;40208;39.778;2.710;2023-03-23T02:50:11;101310.66;;;11.95;100.00
54308;BME280;40208;39.778;2.710;2023-03-23T02:52:59;101313.44;;;11.92;100.00
54308;BME280;40208;39.778;2.710;2023-03-23T02:55:45;101300.56;;;11.81;100.00
54308;BME280;40208;39.778;2.710;2023-03-23T02:58:31;101329.09;;;11.77;100.00
54308;BME280;40208;39.778;2.710;2023-03-23T03:04:22;101323.84;;;11.54;100.00
54308;BME280;40208;39.778;2.710;2023-03-23T03:10:11;101305.53;;;11.24;100.00
54308;BME280;40208;39.778;2.710;2023-03-23T03:21:57;101323.56;;;11.60;100.00
54308;BME280;40208;39.778;2.710;2023-03-23T03:24:43;101327.53;;;11.50;100.00
54308;BME280;40208;39.778;2.710;2023-03-23T03:27:28;101317.41;;;11.37;100.00
54308;BME280;40208;39.778;2.710;2023-03-23T03:30:21;101317.72;;;11.30;100.00
54308;BME280;40208;39.778;2.710;2023-03-23T03:33:08;101298.91;;;11.12;100.00
54308;BME280;40208;39.778;2.710;2023-03-23T03:35:54;101292.53;;;11.16;100.00
54308;BME280;40208;39.778;2.710;2023-03-23T03:38:48;101295.66;;;11.28;100.00
54308;BME280;40208;39.778;2.710;2023-03-23T03:41:35;101308.84;;;11.29;100.00
54308;BME280;40208;39.778;2.710;2023-03-23T03:44:20;101308.22;;;11.46;100.00
54308;BME280;40208;39.778;2.710;2023-03-23T03:47:05;101258.53;;;11.02;100.00
54308;BME280;40208;39.778;2.710;2023-03-23T03:49:50;101295.75;;;11.24;100.00
54308;BME280;40208;39.778;2.710;2023-03-23T03:52:36;101318.31;;;11.36;100.00
54308;BME280;40208;39.778;2.710;2023-03-23T03:55:22;101323.75;;;11.33;100.00
54308;BME280;40208;39.778;2.710;2023-03-23T03:58:07;101329.88;;;11.35;100.00
54308;BME280;40208;39.778;2.710;2023-03-23T04:00:52;101332.50;;;11.37;100.00
54308;BME280;40208;39.778;2.710;2023-03-23T04:03:38;101338.53;;;11.40;100.00
54308;BME280;40208;39.778;2.710;2023-03-23T04:06:23;101330.59;;;11.17;100.00
54308;BME280;40208;39.778;2.710;2023-03-23T04:09:09;101340.53;;;11.12;100.00
54308;BME280;40208;39.778;2.710;2023-03-23T04:11:55;101341.22;;;11.17;100.00
54308;BME280;40208;39.778;2.710;2023-03-23T04:14:40;101330.44;;;10.98;100.00
54308;BME280;40208;39.778;2.710;2023-03-23T04:17:25;101291.03;;;10.64;100.00
54308;BME280;40208;39.778;2.710;2023-03-23T04:20:12;101292.53;;;10.71;100.00
54308;BME280;40208;39.778;2.710;2023-03-23T04:23:01;101316.97;;;11.02;100.00
54308;BME280;40208;39.778;2.710;2023-03-23T04:25:47;101342.16;;;10.92;100.00
54308;BME280;40208;39.778;2.710;2023-03-23T04:28:33;101329.41;;;10.78;100.00
54308;BME280;40208;39.778;2.710;2023-03-23T04:31:19;101291.41;;;10.53;100.00
54308;BME280;40208;39.778;2.710;2023-03-23T04:34:04;101337.53;;;10.74;100.00
54308;BME280;40208;39.778;2.710;2023-03-23T04:36:49;101333.22;;;10.71;100.00
54308;BME280;40208;39.778;2.710;2023-03-23T04:39:35;101312.13;;;10.67;100.00
54308;BME280;40208;39.778;2.710;2023-03-23T04:42:20;101332.06;;;10.78;100.00
54308;BME280;40208;39.778;2.710;2023-03-23T04:45:07;101314.06;;;10.63;100.00
54308;BME280;40208;39.778;2.710;2023-03-23T04:47:52;101324.22;;;10.75;100.00
54308;BME280;40208;39.778;2.710;2023-03-23T04:50:37;101321.59;;;10.74;100.00
54308;BME280;40208;39.778;2.710;2023-03-23T04:53:23;101319.94;;;10.95;100.00
54308;BME280;40208;39.778;2.710;2023-03-23T04:56:07;101309.38;;;10.93;100.00
54308;BME280;40208;39.778;2.710;2023-03-23T04:58:53;101316.47;;;10.93;100.00
54308;BME280;40208;39.778;2.710;2023-03-23T05:01:39;101299.84;;;10.88;100.00
54308;BME280;40208;39.778;2.710;2023-03-23T05:04:25;101302.53;;;11.10;100.00
54308;BME280;40208;39.778;2.710;2023-03-23T05:07:10;101305.66;;;11.21;100.00
54308;BME280;40208;39.778;2.710;2023-03-23T05:09:55;101301.78;;;11.30;100.00
54308;BME280;40208;39.778;2.710;2023-03-23T05:12:41;101304.16;;;11.58;100.00
54308;BME280;40208;39.778;2.710;2023-03-23T05:15:26;101311.31;;;11.34;100.00
54308;BME280;40208;39.778;2.710;2023-03-23T05:18:11;101305.03;;;11.58;100.00
54308;BME280;40208;39.778;2.710;2023-03-23T05:21:00;101299.81;;;11.55;100.00
54308;BME280;40208;39.778;2.710;2023-03-23T05:23:45;101301.56;;;11.56;100.00
54308;BME280;40208;39.778;2.710;2023-03-23T05:26:29;101304.72;;;11.66;100.00
54308;BME280;40208;39.778;2.710;2023-03-23T05:29:14;101302.84;;;11.90;100.00
54308;BME280;40208;39.778;2.710;2023-03-23T05:32:00;101262.13;;;11.67;100.00
54308;BME280;40208;39.778;2.710;2023-03-23T05:34:45;101314.50;;;11.87;100.00
54308;BME280;40208;39.778;2.710;2023-03-23T05:37:31;101290.56;;;11.43;100.00
54308;BME280;40208;39.778;2.710;2023-03-23T05:40:17;101325.88;;;11.47;100.00
54308;BME280;40208;39.778;2.710;2023-03-23T05:43:02;101317.22;;;11.42;100.00
54308;BME280;40208;39.778;2.710;2023-03-23T05:45:47;101297.84;;;11.38;100.00
54308;BME280;40208;39.778;2.710;2023-03-23T05:48:32;101316.78;;;11.31;100.00
54308;BME280;40208;39.778;2.710;2023-03-23T05:51:17;101273.44;;;11.07;100.00
54308;BME280;40208;39.778;2.710;2023-03-23T05:54:03;101315.91;;;11.30;100.00
54308;BME280;40208;39.778;2.710;2023-03-23T05:56:54;101309.34;;;11.17;100.00
54308;BME280;40208;39.778;2.710;2023-03-23T05:59:48;101300.38;;;10.97;100.00
54308;BME280;40208;39.778;2.710;2023-03-23T06:02:33;101321.81;;;11.15;100.00
54308;BME280;40208;39.778;2.710;2023-03-23T06:05:18;101321.22;;;11.08;100.00
54308;BME280;40208;39.778;2.710;2023-03-23T06:08:04;101306.78;;;10.92;100.00
54308;BME280;40208;39.778;2.710;2023-03-23T06:10:49;101316.81;;;11.07;100.00
54308;BME280;40208;39.778;2.710;2023-03-23T06:13:37;101318.25;;;11.16;100.00
54308;BME280;40208;39.778;2.710;2023-03-23T06:16:22;101315.47;;;11.19;100.00
54308;BME280;40208;39.778;2.710;2023-03-23T06:19:07;101326.09;;;11.19;100.00
54308;BME280;40208;39.778;2.710;2023-03-23T06:21:54;101322.16;;;11.06;100.00
54308;BME280;40208;39.778;2.710;2023-03-23T06:24:40;101331.59;;;11.14;100.00
54308;BME280;40208;39.778;2.710;2023-03-23T06:27:25;101320.31;;;11.08;100.00
54308;BME280;40208;39.778;2.710;2023-03-23T06:30:12;101328.38;;;11.06;100.00
54308;BME280;40208;39.778;2.710;2023-03-23T06:33:00;101323.75;;;11.11;100.00
54308;BME280;40208;39.778;2.710;2023-03-23T06:35:45;101317.75;;;11.06;100.00
54308;BME280;40208;39.778;2.710;2023-03-23T06:38:30;101309.38;;;10.93;100.00
54308;BME280;40208;39.778;2.710;2023-03-23T06:41:15;101318.19;;;10.94;100.00
54308;BME280;40208;39.778;2.710;2023-03-23T06:44:01;101281.78;;;10.74;100.00
54308;BME280;40208;39.778;2.710;2023-03-23T06:46:46;101316.25;;;10.99;100.00
54308;BME280;40208;39.778;2.710;2023-03-23T06:49:33;101316.66;;;10.88;100.00
54308;BME280;40208;39.778;2.710;2023-03-23T06:52:19;101307.66;;;10.69;100.00
54308;BME280;40208;39.778;2.710;2023-03-23T06:55:04;101345.84;;;10.88;100.00
54308;BME280;40208;39.778;2.710;2023-03-23T06:57:49;101336.09;;;10.89;100.00
54308;BME280;40208;39.778;2.710;2023-03-23T07:00:34;101360.69;;;10.94;100.00
54308;BME280;40208;39.778;2.710;2023-03-23T07:03:18;101350.94;;;10.94;100.00
54308;BME280;40208;39.778;2.710;2023-03-23T07:06:04;101306.38;;;10.79;100.00
54308;BME280;40208;39.778;2.710;2023-03-23T07:08:49;101361.91;;;11.09;100.00
54308;BME280;40208;39.778;2.710;2023-03-23T07:11:33;101358.19;;;11.13;100.00
54308;BME280;40208;39.778;2.710;2023-03-23T07:14:19;101368.38;;;11.25;100.00
54308;BME280;40208;39.778;2.710;2023-03-23T07:17:04;101351.69;;;11.21;100.00
54308;BME280;40208;39.778;2.710;2023-03-23T07:19:50;101371.09;;;11.45;100.00
54308;BME280;40208;39.778;2.710;2023-03-23T07:22:35;101373.97;;;11.63;100.00
54308;BME280;40208;39.778;2.710;2023-03-23T07:25:20;101383.31;;;11.73;100.00
54308;BME280;40208;39.778;2.710;2023-03-23T07:28:05;101372.31;;;11.82;100.00
54308;BME280;40208;39.778;2.710;2023-03-23T07:30:51;101374.34;;;11.98;100.00
54308;BME280;40208;39.778;2.710;2023-03-23T07:33:36;101369.78;;;12.01;100.00
54308;BME280;40208;39.778;2.710;2023-03-23T07:36:22;101371.31;;;12.07;100.00
54308;BME280;40208;39.778;2.710;2023-03-23T07:39:07;101377.19;;;12.15;100.00
54308;BME280;40208;39.778;2.710;2023-03-23T07:41:52;101364.75;;;12.16;100.00
54308;BME280;40208;39.778;2.710;2023-03-23T07:44:37;101360.03;;;12.22;100.00
54308;BME280;40208;39.778;2.710;2023-03-23T07:47:22;101328.50;;;12.13;100.00
54308;BME280;40208;39.778;2.710;2023-03-23T07:50:08;101372.53;;;12.61;100.00
54308;BME280;40208;39.778;2.710;2023-03-23T07:52:55;101368.81;;;12.65;100.00
54308;BME280;40208;39.778;2.710;2023-03-23T07:55:41;101373.84;;;12.71;100.00
54308;BME280;40208;39.778;2.710;2023-03-23T07:58:26;101377.03;;;12.80;100.00
54308;BME280;40208;39.778;2.710;2023-03-23T08:01:13;101386.53;;;12.85;100.00
54308;BME280;40208;39.778;2.710;2023-03-23T08:03:59;101379.94;;;12.94;100.00
54308;BME280;40208;39.778;2.710;2023-03-23T08:06:44;101379.53;;;13.03;100.00
54308;BME280;40208;39.778;2.710;2023-03-23T08:09:30;101397.81;;;13.11;100.00
54308;BME280;40208;39.778;2.710;2023-03-23T08:12:15;101388.34;;;13.24;100.00
54308;BME280;40208;39.778;2.710;2023-03-23T08:15:01;101382.75;;;13.30;100.00
54308;BME280;40208;39.778;2.710;2023-03-23T08:17:47;101379.47;;;13.43;100.00
54308;BME280;40208;39.778;2.710;2023-03-23T08:20:32;101384.69;;;13.65;100.00
54308;BME280;40208;39.778;2.710;2023-03-23T08:23:17;101398.69;;;13.87;100.00
54308;BME280;40208;39.778;2.710;2023-03-23T08:26:03;101271.91;;;13.25;100.00
54308;BME280;40208;39.778;2.710;2023-03-23T08:28:50;101390.22;;;13.96;100.00
54308;BME280;40208;39.778;2.710;2023-03-23T08:31:35;101401.94;;;14.11;100.00
54308;BME280;40208;39.778;2.710;2023-03-23T08:34:21;101409.88;;;14.30;100.00
54308;BME280;40208;39.778;2.710;2023-03-23T08:37:07;101391.84;;;14.53;100.00
54308;BME280;40208;39.778;2.710;2023-03-23T08:39:54;101409.59;;;14.54;100.00
54308;BME280;40208;39.778;2.710;2023-03-23T08:42:43;101350.59;;;14.41;100.00
54308;BME280;40208;39.778;2.710;2023-03-23T08:45:28;101413.44;;;14.83;100.00
54308;BME280;40208;39.778;2.710;2023-03-23T08:48:13;101399.53;;;14.59;100.00
54308;BME280;40208;39.778;2.710;2023-03-23T08:50:57;101415.66;;;14.75;100.00
54308;BME280;40208;39.778;2.710;2023-03-23T08:53:43;101360.63;;;14.53;100.00
54308;BME280;40208;39.778;2.710;2023-03-23T08:56:28;101409.88;;;14.82;100.00
54308;BME280;40208;39.778;2.710;2023-03-23T08:59:13;101412.63;;;14.98;100.00
54308;BME280;40208;39.778;2.710;2023-03-23T09:01:57;101368.03;;;14.83;100.00
54308;BME280;40208;39.778;2.710;2023-03-23T09:04:43;101419.41;;;15.37;100.00
54308;BME280;40208;39.778;2.710;2023-03-23T09:07:27;101416.41;;;15.43;100.00
54308;BME280;40208;39.778;2.710;2023-03-23T09:10:13;101423.41;;;15.46;100.00
54308;BME280;40208;39.778;2.710;2023-03-23T09:12:58;101414.34;;;15.64;100.00
54308;BME280;40208;39.778;2.710;2023-03-23T09:15:43;101428.41;;;15.68;100.00
54308;BME280;40208;39.778;2.710;2023-03-23T09:18:28;101308.88;;;14.89;100.00
54308;BME280;40208;39.778;2.710;2023-03-23T09:21:13;101291.19;;;14.87;100.00
54308;BME280;40208;39.778;2.710;2023-03-23T09:23:58;101428.28;;;15.71;100.00
54308;BME280;40208;39.778;2.710;2023-03-23T09:26:44;101443.03;;;15.94;100.00
54308;BME280;40208;39.778;2.710;2023-03-23T09:29:28;101415.41;;;15.94;100.00
54308;BME280;40208;39.778;2.710;2023-03-23T09:32:14;101438.28;;;15.99;100.00
54308;BME280;40208;39.778;2.710;2023-03-23T09:35:00;101432.75;;;16.02;100.00
54308;BME280;40208;39.778;2.710;2023-03-23T09:37:45;101426.94;;;16.10;100.00
54308;BME280;40208;39.778;2.710;2023-03-23T09:40:50;101443.06;;;16.24;100.00
54308;BME280;40208;39.778;2.710;2023-03-23T09:52:17;101435.84;;;16.71;100.00
54308;BME280;40208;39.778;2.710;2023-03-23T09:55:03;101431.28;;;16.73;100.00
54308;BME280;40208;39.778;2.710;2023-03-23T10:01:04;101411.28;;;16.79;100.00
54308;BME280;40208;39.778;2.710;2023-03-23T10:03:58;101421.03;;;16.80;100.00
54308;BME280;40208;39.778;2.710;2023-03-23T10:06:46;101402.34;;;16.64;100.00
54308;BME280;40208;39.778;2.710;2023-03-23T10:09:31;101429.00;;;16.81;100.00
54308;BME280;40208;39.778;2.710;2023-03-23T10:12:27;101446.63;;;16.85;100.00
54308;BME280;40208;39.778;2.710;2023-03-23T10:18:08;101429.88;;;16.96;100.00
54308;BME280;40208;39.778;2.710;2023-03-23T10:20:59;101419.91;;;17.12;100.00
54308;BME280;40208;39.778;2.710;2023-03-23T10:29:51;101423.09;;;17.19;100.00
54308;BME280;40208;39.778;2.710;2023-03-23T10:32:47;101428.75;;;17.14;100.00
54308;BME280;40208;39.778;2.710;2023-03-23T10:35:50;101428.47;;;17.05;100.00
54308;BME280;40208;39.778;2.710;2023-03-23T10:38:44;101407.66;;;17.08;100.00
54308;BME280;40208;39.778;2.710;2023-03-23T10:41:30;101426.91;;;17.15;100.00
54308;BME280;40208;39.778;2.710;2023-03-23T10:44:18;101335.50;;;16.61;100.00
54308;BME280;40208;39.778;2.710;2023-03-23T10:47:07;101430.16;;;17.20;100.00
54308;BME280;40208;39.778;2.710;2023-03-23T10:49:54;101430.56;;;17.28;100.00
54308;BME280;40208;39.778;2.710;2023-03-23T10:52:42;101436.88;;;17.27;100.00
54308;BME280;40208;39.778;2.710;2023-03-23T10:55:37;101411.38;;;17.20;100.00
54308;BME280;40208;39.778;2.710;2023-03-23T10:58:26;101429.00;;;17.38;100.00
54308;BME280;40208;39.778;2.710;2023-03-23T11:01:14;101410.34;;;17.37;100.00
54308;BME280;40208;39.778;2.710;2023-03-23T11:04:00;101426.69;;;17.61;100.00
54308;BME280;40208;39.778;2.710;2023-03-23T11:06:48;101417.06;;;17.71;100.00
54308;BME280;40208;39.778;2.710;2023-03-23T11:09:50;101397.63;;;17.53;100.00
54308;BME280;40208;39.778;2.710;2023-03-23T11:12:36;101415.91;;;17.75;100.00
54308;BME280;40208;39.778;2.710;2023-03-23T11:15:32;101431.34;;;17.86;100.00
54308;BME280;40208;39.778;2.710;2023-03-23T11:18:26;101414.38;;;17.86;100.00
54308;BME280;40208;39.778;2.710;2023-03-23T11:21:27;101411.13;;;17.80;100.00
54308;BME280;40208;39.778;2.710;2023-03-23T11:24:26;101434.44;;;18.07;100.00
54308;BME280;40208;39.778;2.710;2023-03-23T11:27:14;101423.31;;;18.13;100.00
54308;BME280;40208;39.778;2.710;2023-03-23T11:30:08;101417.50;;;18.19;100.00
54308;BME280;40208;39.778;2.710;2023-03-23T11:32:54;101418.06;;;18.25;100.00
54308;BME280;40208;39.778;2.710;2023-03-23T11:35:43;101417.16;;;18.11;100.00
54308;BME280;40208;39.778;2.710;2023-03-23T11:38:28;101404.97;;;18.20;100.00
54308;BME280;40208;39.778;2.710;2023-03-23T11:41:18;101397.13;;;18.30;100.00
54308;BME280;40208;39.778;2.710;2023-03-23T11:44:10;101400.56;;;18.32;100.00
54308;BME280;40208;39.778;2.710;2023-03-23T11:47:04;101275.84;;;17.69;90.67
54308;BME280;40208;39.778;2.710;2023-03-23T11:50:02;101229.59;;;17.38;96.29
54308;BME280;40208;39.778;2.710;2023-03-23T11:53:10;101405.53;;;18.38;100.00
54308;BME280;40208;39.778;2.710;2023-03-23T11:58:59;101315.13;;;17.84;100.00
54308;BME280;40208;39.778;2.710;2023-03-23T12:01:53;101386.31;;;18.44;99.32
54308;BME280;40208;39.778;2.710;2023-03-23T12:25:45;101394.53;;;18.81;77.11
54308;BME280;40208;39.778;2.710;2023-03-23T12:44:27;101317.38;;;18.43;91.91
54308;BME280;40208;39.778;2.710;2023-03-23T12:47:42;101375.50;;;18.84;72.40
54308;BME280;40208;39.778;2.710;2023-03-23T12:50:34;101364.75;;;18.84;66.08
54308;BME280;40208;39.778;2.710;2023-03-23T12:53:25;101342.25;;;18.85;61.11
54308;BME280;40208;39.778;2.710;2023-03-23T12:56:19;101354.50;;;18.76;60.76
54308;BME280;40208;39.778;2.710;2023-03-23T12:59:48;101355.78;;;18.71;52.54
54308;BME280;40208;39.778;2.710;2023-03-23T13:02:43;101301.38;;;18.41;57.73
54308;BME280;40208;39.778;2.710;2023-03-23T13:05:36;101370.16;;;18.70;56.72
54308;BME280;40208;39.778;2.710;2023-03-23T13:08:35;101309.63;;;18.64;55.25
54308;BME280;40208;39.778;2.710;2023-03-23T13:11:34;101246.19;;;18.36;59.22
54308;BME280;40208;39.778;2.710;2023-03-23T13:14:43;101336.88;;;19.22;54.61
54308;BME280;40208;39.778;2.710;2023-03-23T13:20:54;101306.91;;;19.15;61.81
54308;BME280;40208;39.778;2.710;2023-03-23T13:23:50;101182.44;;;18.51;57.57
54308;BME280;40208;39.778;2.710;2023-03-23T13:26:39;101344.69;;;19.51;61.60
54308;BME280;40208;39.778;2.710;2023-03-23T13:29:25;101340.50;;;19.46;64.39
54308;BME280;40208;39.778;2.710;2023-03-23T13:32:16;101340.03;;;19.53;63.85
54308;BME280;40208;39.778;2.710;2023-03-23T13:35:10;101345.41;;;19.53;56.47
54308;BME280;40208;39.778;2.710;2023-03-23T13:37:56;101334.19;;;19.59;55.38
54308;BME280;40208;39.778;2.710;2023-03-23T13:40:43;101202.97;;;18.77;47.82
54308;BME280;40208;39.778;2.710;2023-03-23T13:43:33;101334.28;;;19.57;47.52
54308;BME280;40208;39.778;2.710;2023-03-23T13:51:52;101327.56;;;19.76;46.57
54308;BME280;40208;39.778;2.710;2023-03-23T13:54:41;101323.94;;;19.77;48.08
54308;BME280;40208;39.778;2.710;2023-03-23T13:57:37;101312.06;;;19.79;48.46
54308;BME280;40208;39.778;2.710;2023-03-23T14:03:24;101319.56;;;19.87;48.75
54308;BME280;40208;39.778;2.710;2023-03-23T14:06:13;101314.59;;;19.69;52.14
54308;BME280;40208;39.778;2.710;2023-03-23T14:09:03;101316.84;;;19.63;50.35
54308;BME280;40208;39.778;2.710;2023-03-23T14:11:56;101309.72;;;19.75;48.87
54308;BME280;40208;39.778;2.710;2023-03-23T14:14:43;101318.44;;;19.65;49.54
54308;BME280;40208;39.778;2.710;2023-03-23T14:17:29;101304.72;;;19.81;50.12
54308;BME280;40208;39.778;2.710;2023-03-23T14:23:25;101303.81;;;19.69;55.72
54308;BME280;40208;39.778;2.710;2023-03-23T14:26:11;101306.13;;;19.74;58.21
54308;BME280;40208;39.778;2.710;2023-03-23T14:28:58;101306.66;;;19.79;60.82
54308;BME280;40208;39.778;2.710;2023-03-23T14:31:43;101308.63;;;19.77;62.69
54308;BME280;40208;39.778;2.710;2023-03-23T14:34:29;101292.81;;;19.73;63.40
54308;BME280;40208;39.778;2.710;2023-03-23T14:37:14;101291.25;;;19.81;67.45
54308;BME280;40208;39.778;2.710;2023-03-23T14:40:00;101292.75;;;19.97;67.01
54308;BME280;40208;39.778;2.710;2023-03-23T14:42:44;101284.44;;;20.00;67.35
54308;BME280;40208;39.778;2.710;2023-03-23T14:45:29;101290.13;;;20.08;67.04
54308;BME280;40208;39.778;2.710;2023-03-23T14:48:15;101287.78;;;20.03;66.77
54308;BME280;40208;39.778;2.710;2023-03-23T14:51:01;101278.47;;;20.19;60.88
54308;BME280;40208;39.778;2.710;2023-03-23T14:53:48;101287.34;;;20.32;61.29
54308;BME280;40208;39.778;2.710;2023-03-23T14:56:35;101278.53;;;20.41;57.03
54308;BME280;40208;39.778;2.710;2023-03-23T14:59:20;101282.06;;;20.30;53.46
54308;BME280;40208;39.778;2.710;2023-03-23T15:02:05;101280.06;;;20.10;51.88
54308;BME280;40208;39.778;2.710;2023-03-23T15:04:51;101289.25;;;20.07;49.16
54308;BME280;40208;39.778;2.710;2023-03-23T15:07:39;101278.19;;;19.99;51.07
54308;BME280;40208;39.778;2.710;2023-03-23T15:10:24;101267.50;;;19.86;51.69
54308;BME280;40208;39.778;2.710;2023-03-23T15:13:10;101270.06;;;19.88;48.86
54308;BME280;40208;39.778;2.710;2023-03-23T15:16:03;101278.63;;;19.82;49.59
54308;BME280;40208;39.778;2.710;2023-03-23T15:18:53;101272.22;;;19.72;50.08
54308;BME280;40208;39.778;2.710;2023-03-23T15:21:49;101268.13;;;19.66;49.55
54308;BME280;40208;39.778;2.710;2023-03-23T15:24:36;101267.13;;;19.56;49.87
54308;BME280;40208;39.778;2.710;2023-03-23T15:27:28;101260.88;;;19.55;47.22
54308;BME280;40208;39.778;2.710;2023-03-23T15:33:09;101263.91;;;19.51;48.89
54308;BME280;40208;39.778;2.710;2023-03-23T15:35:55;101252.75;;;19.44;49.99
54308;BME280;40208;39.778;2.710;2023-03-23T15:38:42;101260.06;;;19.42;48.58
54308;BME280;40208;39.778;2.710;2023-03-23T15:41:28;101259.50;;;19.25;49.72
54308;BME280;40208;39.778;2.710;2023-03-23T15:44:20;101264.97;;;19.24;49.55
54308;BME280;40208;39.778;2.710;2023-03-23T15:47:16;101254.69;;;19.18;50.08
54308;BME280;40208;39.778;2.710;2023-03-23T15:50:33;101261.03;;;19.17;49.59
54308;BME280;40208;39.778;2.710;2023-03-23T15:56:10;101259.31;;;19.16;49.40
54308;BME280;40208;39.778;2.710;2023-03-23T15:58:56;101252.66;;;19.09;48.21
54308;BME280;40208;39.778;2.710;2023-03-23T16:01:43;101250.50;;;19.14;49.63
54308;BME280;40208;39.778;2.710;2023-03-23T16:04:28;101248.88;;;19.11;48.50
54308;BME280;40208;39.778;2.710;2023-03-23T16:07:14;101259.88;;;19.08;49.06
54308;BME280;40208;39.778;2.710;2023-03-23T16:09:59;101245.28;;;18.99;48.65
54308;BME280;40208;39.778;2.710;2023-03-23T16:12:44;101263.34;;;18.97;48.44
54308;BME280;40208;39.778;2.710;2023-03-23T16:15:29;101253.34;;;18.99;47.62
54308;BME280;40208;39.778;2.710;2023-03-23T16:18:18;101249.81;;;18.99;45.40